PWSweather.com
Personal Weather Stations
Station Observations
KKYCRABO2
Cedar Creek Lake 840 Ky. Hwy. 39 N, Crab Orchard, KY 40419

Cedar Creek Lake 840 Ky. Hwy. 39 NCrab Orchard, KY 40419

Lat: 37.4736234544238, Lon: -84.5120286941528

Elevation: 952

Station Type: TYCON Power TP1080WC Pro

http://kbweather.net/

High Low Average
Temperature 49.5°F9.7°C 49.1°F9.5°C 49.3°F9.6°C
Dew Point 49.2°F9.6°C 48.8°F9.3°C 49.0°F9.4°C
Winds 2.2 mph 3.5 kmh 1.6 mph 2.6 kmh 2.0 mph SW3.2 kmh SW
Wind Gusts 7.6 mph12.2 kmh 6.0 mph9.7 kmh 7.0 mph11.3 kmh
Humidity 99% 99% 99%
Pressure 29.37 in994.6 mb 29.37 in994.6 mb -
Precipitation 0.04 in1.0 mm - -
Hour Temp Dew Point Humidity Winds Wind Gusts Pressure Precip Precip Rate Daily Precip Total
12:00 AM 51.6°F10.9°C 51.4°F10.8°C 99% Calm Calm 2.2 mph3.5 kmh 29.34 in993.6 mb 0.14 in3.6 mm 0.00 in/hr0.0 mm/hr 0.14 in3.6 mm
12:05 AM 51.6°F10.9°C 51.4°F10.8°C 99% Calm Calm 1.6 mph2.6 kmh 29.34 in993.6 mb 0.14 in3.6 mm 0.00 in/hr0.0 mm/hr 0.14 in3.6 mm
12:10 AM 51.4°F10.8°C 51.2°F10.7°C 99% Calm Calm 0.7 mph1.1 kmh 29.34 in993.6 mb 0.09 in2.3 mm 0.00 in/hr0.0 mm/hr 0.14 in3.6 mm
12:15 AM 51.4°F10.8°C 51.2°F10.7°C 99% Calm Calm 1.6 mph2.6 kmh 29.34 in993.6 mb 0.09 in2.3 mm 0.00 in/hr0.0 mm/hr 0.14 in3.6 mm
12:20 AM 51.4°F10.8°C 51.2°F10.7°C 99% Calm Calm 1.6 mph2.6 kmh 29.34 in993.6 mb 0.09 in2.3 mm 0.00 in/hr0.0 mm/hr 0.01 in0.3 mm
12:25 AM 51.4°F10.8°C 51.2°F10.7°C 99% Calm Calm 2.2 mph3.5 kmh 29.35 in993.9 mb 0.06 in1.5 mm 0.00 in/hr0.0 mm/hr 0.02 in0.5 mm
12:30 AM 51.3°F10.7°C 51.0°F10.6°C 99% 1.6 mph NNW2.6 kmh NNW 3.1 mph5.0 kmh 29.35 in993.9 mb 0.05 in1.3 mm 0.00 in/hr0.0 mm/hr 0.02 in0.5 mm
12:35 AM 50.9°F10.5°C 50.6°F10.3°C 99% 0.7 mph NNW1.1 kmh NNW 3.1 mph5.0 kmh 29.35 in993.9 mb 0.05 in1.3 mm 0.00 in/hr0.0 mm/hr 0.02 in0.5 mm
12:40 AM 50.7°F10.4°C 50.5°F10.3°C 99% 1.6 mph N2.6 kmh N 4.5 mph7.2 kmh 29.36 in994.2 mb 0.04 in1.0 mm 0.00 in/hr0.0 mm/hr 0.02 in0.5 mm
12:45 AM 50.5°F10.3°C 50.3°F10.2°C 99% 3.8 mph N6.1 kmh N 9.2 mph14.8 kmh 29.36 in994.2 mb 0.04 in1.0 mm 0.00 in/hr0.0 mm/hr 0.02 in0.5 mm
12:50 AM 50.2°F10.1°C 49.9°F9.9°C 99% 2.2 mph N3.5 kmh N 9.2 mph14.8 kmh 29.36 in994.2 mb 0.02 in0.5 mm 0.00 in/hr0.0 mm/hr 0.02 in0.5 mm
12:55 AM 50.0°F10.0°C 49.7°F9.8°C 99% 2.2 mph N3.5 kmh N 9.2 mph14.8 kmh 29.36 in994.2 mb 0.02 in0.5 mm 0.00 in/hr0.0 mm/hr 0.02 in0.5 mm
01:00 AM 49.5°F9.7°C 49.2°F9.6°C 99% 2.2 mph N3.5 kmh N 7.6 mph12.2 kmh 29.37 in994.6 mb 0.04 in1.0 mm 0.02 in/hr0.5 mm/hr 0.04 in1.0 mm
01:05 AM 49.3°F9.6°C 49.0°F9.4°C 99% 1.6 mph N2.6 kmh N 7.6 mph12.2 kmh 29.37 in994.6 mb 0.04 in1.0 mm 0.00 in/hr0.0 mm/hr 0.04 in1.0 mm
01:10 AM 49.1°F9.5°C 48.8°F9.3°C 99% 1.6 mph N2.6 kmh N 6.0 mph9.7 kmh 29.37 in994.6 mb 0.04 in1.0 mm 0.00 in/hr0.0 mm/hr 0.04 in1.0 mm
01:15 AM 48.9°F9.4°C 48.7°F9.3°C 99% 0.7 mph N1.1 kmh N 6.0 mph9.7 kmh 29.37 in994.6 mb 0.04 in1.0 mm 0.00 in/hr0.0 mm/hr 0.04 in1.0 mm
01:20 AM 48.7°F9.3°C 48.5°F9.2°C 99% 1.6 mph N2.6 kmh N 4.5 mph7.2 kmh 29.37 in994.6 mb 0.02 in0.5 mm 0.00 in/hr0.0 mm/hr 0.04 in1.0 mm
01:25 AM 48.6°F9.2°C 48.3°F9.1°C 99% 2.2 mph N3.5 kmh N 6.0 mph9.7 kmh 29.37 in994.6 mb 0.01 in0.3 mm 0.00 in/hr0.0 mm/hr 0.04 in1.0 mm
01:30 AM 48.4°F9.1°C 48.1°F8.9°C 99% 1.6 mph N2.6 kmh N 6.0 mph9.7 kmh 29.38 in994.9 mb 0.02 in0.5 mm 0.12 in/hr3.0 mm/hr 0.05 in1.3 mm
01:35 AM 48.4°F9.1°C 48.1°F8.9°C 99% 1.6 mph N2.6 kmh N 5.4 mph8.7 kmh 29.37 in994.6 mb 0.02 in0.5 mm 0.00 in/hr0.0 mm/hr 0.05 in1.3 mm
01:40 AM 47.8°F8.8°C 47.6°F8.7°C 99% 2.2 mph NW3.5 kmh NW 7.6 mph12.2 kmh 29.38 in994.9 mb 0.04 in1.0 mm 0.24 in/hr6.1 mm/hr 0.06 in1.5 mm
01:45 AM 47.7°F8.7°C 47.4°F8.6°C 99% 0.7 mph NW1.1 kmh NW 7.6 mph12.2 kmh 29.38 in994.9 mb 0.05 in1.3 mm 0.12 in/hr3.0 mm/hr 0.07 in1.8 mm
01:50 AM 47.5°F8.6°C 47.2°F8.4°C 99% Calm Calm 6.0 mph9.7 kmh 29.38 in994.9 mb 0.05 in1.3 mm 0.00 in/hr0.0 mm/hr 0.07 in1.8 mm
01:55 AM 47.3°F8.5°C 47.0°F8.3°C 99% 1.6 mph N2.6 kmh N 3.8 mph6.1 kmh 29.39 in995.3 mb 0.05 in1.3 mm 0.00 in/hr0.0 mm/hr 0.07 in1.8 mm
02:00 AM 46.6°F8.1°C 46.3°F7.9°C 99% 0.7 mph N1.1 kmh N 5.4 mph8.7 kmh 29.38 in994.9 mb 0.04 in1.0 mm 0.00 in/hr0.0 mm/hr 0.07 in1.8 mm
02:05 AM 46.4°F8.0°C 46.1°F7.8°C 99% 0.7 mph NNE1.1 kmh NNE 5.4 mph8.7 kmh 29.38 in994.9 mb 0.04 in1.0 mm 0.00 in/hr0.0 mm/hr 0.07 in1.8 mm
02:10 AM 45.7°F7.6°C 45.4°F7.4°C 99% 1.6 mph NE2.6 kmh NE 5.4 mph8.7 kmh 29.39 in995.3 mb 0.04 in1.0 mm 0.00 in/hr0.0 mm/hr 0.07 in1.8 mm
02:15 AM 45.5°F7.5°C 45.2°F7.3°C 99% 0.7 mph NE1.1 kmh NE 5.4 mph8.7 kmh 29.39 in995.3 mb 0.04 in1.0 mm 0.00 in/hr0.0 mm/hr 0.07 in1.8 mm
02:20 AM 45.3°F7.4°C 45.1°F7.3°C 99% Calm Calm 6.0 mph9.7 kmh 29.38 in994.9 mb 0.04 in1.0 mm 0.00 in/hr0.0 mm/hr 0.07 in1.8 mm
02:25 AM 45.3°F7.4°C 45.1°F7.3°C 99% 2.2 mph NE3.5 kmh NE 6.0 mph9.7 kmh 29.38 in994.9 mb 0.05 in1.3 mm 0.12 in/hr3.0 mm/hr 0.08 in2.0 mm
02:30 AM 44.8°F7.1°C 44.5°F6.9°C 99% 1.6 mph NNE2.6 kmh NNE 5.4 mph8.7 kmh 29.38 in994.9 mb 0.04 in1.0 mm 0.00 in/hr0.0 mm/hr 0.08 in2.0 mm
02:35 AM 44.4°F6.9°C 44.2°F6.8°C 99% 3.1 mph NNW5.0 kmh NNW 7.6 mph12.2 kmh 29.39 in995.3 mb 0.04 in1.0 mm 0.00 in/hr0.0 mm/hr 0.08 in2.0 mm
02:40 AM 43.9°F6.6°C 43.6°F6.4°C 99% 1.6 mph NNW2.6 kmh NNW 7.6 mph12.2 kmh 29.39 in995.3 mb 0.02 in0.5 mm 0.00 in/hr0.0 mm/hr 0.08 in2.0 mm
02:45 AM 43.3°F6.3°C 43.1°F6.2°C 99% 1.6 mph NNE2.6 kmh NNE 7.6 mph12.2 kmh 29.40 in995.6 mb 0.02 in0.5 mm 0.00 in/hr0.0 mm/hr 0.09 in2.3 mm
02:50 AM 43.3°F6.3°C 43.1°F6.2°C 99% 1.6 mph NE2.6 kmh NE 4.5 mph7.2 kmh 29.40 in995.6 mb 0.02 in0.5 mm 0.00 in/hr0.0 mm/hr 0.09 in2.3 mm
02:55 AM 42.1°F5.6°C 41.8°F5.4°C 99% 1.6 mph NNE2.6 kmh NNE 5.4 mph8.7 kmh 29.40 in995.6 mb 0.02 in0.5 mm 0.00 in/hr0.0 mm/hr 0.09 in2.3 mm
03:00 AM 41.7°F5.4°C 41.5°F5.3°C 99% 2.2 mph NNE3.5 kmh NNE 5.4 mph8.7 kmh 29.40 in995.6 mb 0.02 in0.5 mm 0.00 in/hr0.0 mm/hr 0.09 in2.3 mm
03:05 AM 41.7°F5.4°C 41.5°F5.3°C 99% 2.2 mph NNE3.5 kmh NNE 5.4 mph8.7 kmh 29.42 in996.3 mb 0.02 in0.5 mm 0.00 in/hr0.0 mm/hr 0.09 in2.3 mm
03:10 AM 41.4°F5.2°C 41.1°F5.1°C 99% 1.6 mph N2.6 kmh N 4.5 mph7.2 kmh 29.42 in996.3 mb 0.02 in0.5 mm 0.00 in/hr0.0 mm/hr 0.09 in2.3 mm
03:15 AM 41.0°F5.0°C 40.7°F4.8°C 99% 2.2 mph NNE3.5 kmh NNE 6.0 mph9.7 kmh 29.42 in996.3 mb 0.02 in0.5 mm 0.00 in/hr0.0 mm/hr 0.09 in2.3 mm
03:20 AM 40.8°F4.9°C 40.6°F4.8°C 99% 1.6 mph N2.6 kmh N 6.9 mph11.1 kmh 29.41 in995.9 mb 0.02 in0.5 mm 0.00 in/hr0.0 mm/hr 0.09 in2.3 mm
03:25 AM 40.5°F4.7°C 40.2°F4.6°C 99% 3.1 mph N5.0 kmh N 6.9 mph11.1 kmh 29.42 in996.3 mb 0.01 in0.3 mm 0.00 in/hr0.0 mm/hr 0.09 in2.3 mm
03:30 AM 40.1°F4.5°C 39.8°F4.3°C 99% 2.2 mph N3.5 kmh N 6.9 mph11.1 kmh 29.42 in996.3 mb 0.01 in0.3 mm 0.00 in/hr0.0 mm/hr 0.09 in2.3 mm
03:35 AM 39.4°F4.1°C 39.1°F3.9°C 99% 2.2 mph NNE3.5 kmh NNE 6.9 mph11.1 kmh 29.43 in996.6 mb 0.01 in0.3 mm 0.00 in/hr0.0 mm/hr 0.09 in2.3 mm
03:40 AM 39.2°F4.0°C 38.9°F3.8°C 99% 2.2 mph N3.5 kmh N 9.2 mph14.8 kmh 29.42 in996.3 mb 0.01 in0.3 mm 0.00 in/hr0.0 mm/hr 0.09 in2.3 mm
03:45 AM 38.5°F3.6°C 38.2°F3.4°C 99% 1.6 mph NNW2.6 kmh NNW 9.2 mph14.8 kmh 29.42 in996.3 mb 0.00 in0.0 mm 0.00 in/hr0.0 mm/hr 0.09 in2.3 mm
03:50 AM 38.1°F3.4°C 37.9°F3.3°C 99% 1.6 mph NE2.6 kmh NE 6.9 mph11.1 kmh 29.44 in997.0 mb 0.00 in0.0 mm 0.00 in/hr0.0 mm/hr 0.09 in2.3 mm
03:55 AM 37.9°F3.3°C 37.7°F3.2°C 99% 1.6 mph ENE2.6 kmh ENE 9.2 mph14.8 kmh 29.44 in997.0 mb 0.00 in0.0 mm 0.00 in/hr0.0 mm/hr 0.09 in2.3 mm
04:00 AM 37.8°F3.2°C 37.5°F3.1°C 99% 1.6 mph N2.6 kmh N 9.2 mph14.8 kmh 29.44 in997.0 mb 0.00 in0.0 mm 0.00 in/hr0.0 mm/hr 0.09 in2.3 mm
04:05 AM 37.8°F3.2°C 37.5°F3.1°C 99% 1.6 mph N2.6 kmh N 6.0 mph9.7 kmh 29.43 in996.6 mb 0.00 in0.0 mm 0.00 in/hr0.0 mm/hr 0.09 in2.3 mm
04:10 AM 37.4°F3.0°C 37.1°F2.8°C 99% 1.6 mph N2.6 kmh N 7.6 mph12.2 kmh 29.44 in997.0 mb 0.00 in0.0 mm 0.00 in/hr0.0 mm/hr 0.09 in2.3 mm
04:15 AM 37.4°F3.0°C 37.1°F2.8°C 99% 2.2 mph NNE3.5 kmh NNE 7.6 mph12.2 kmh 29.43 in996.6 mb 0.01 in0.3 mm 0.12 in/hr3.0 mm/hr 0.11 in2.8 mm
04:20 AM 37.2°F2.9°C 37.0°F2.8°C 99% 0.7 mph N1.1 kmh N 6.9 mph11.1 kmh 29.44 in997.0 mb 0.01 in0.3 mm 0.00 in/hr0.0 mm/hr 0.11 in2.8 mm
04:25 AM 37.0°F2.8°C 36.8°F2.7°C 99% 1.6 mph N2.6 kmh N 6.9 mph11.1 kmh 29.46 in997.6 mb 0.01 in0.3 mm 0.00 in/hr0.0 mm/hr 0.11 in2.8 mm
04:30 AM 36.9°F2.7°C 36.6°F2.6°C 99% 0.7 mph N1.1 kmh N 5.4 mph8.7 kmh 29.44 in997.0 mb 0.01 in0.3 mm 0.00 in/hr0.0 mm/hr 0.11 in2.8 mm
04:35 AM 36.9°F2.7°C 36.6°F2.6°C 99% 0.7 mph NE1.1 kmh NE 3.8 mph6.1 kmh 29.44 in997.0 mb 0.02 in0.5 mm 0.12 in/hr3.0 mm/hr 0.12 in3.0 mm
04:40 AM 36.9°F2.7°C 36.6°F2.6°C 99% 1.6 mph NNE2.6 kmh NNE 3.8 mph6.1 kmh 29.46 in997.6 mb 0.02 in0.5 mm 0.00 in/hr0.0 mm/hr 0.12 in3.0 mm
04:45 AM 36.9°F2.7°C 36.6°F2.6°C 99% 0.7 mph NNE1.1 kmh NNE 3.8 mph6.1 kmh 29.45 in997.3 mb 0.02 in0.5 mm 0.00 in/hr0.0 mm/hr 0.12 in3.0 mm
04:50 AM 36.9°F2.7°C 36.6°F2.6°C 99% Calm Calm 3.8 mph6.1 kmh 29.45 in997.3 mb 0.02 in0.5 mm 0.00 in/hr0.0 mm/hr 0.12 in3.0 mm
04:55 AM 36.9°F2.7°C 36.6°F2.6°C 99% 0.7 mph NNE1.1 kmh NNE 3.8 mph6.1 kmh 29.45 in997.3 mb 0.04 in1.0 mm 0.24 in/hr6.1 mm/hr 0.13 in3.3 mm
05:00 AM 36.7°F2.6°C 36.4°F2.4°C 99% 1.6 mph NNE2.6 kmh NNE 3.8 mph6.1 kmh 29.45 in997.3 mb 0.04 in1.0 mm 0.00 in/hr0.0 mm/hr 0.13 in3.3 mm
05:05 AM 36.7°F2.6°C 36.4°F2.4°C 99% 1.6 mph N2.6 kmh N 3.8 mph6.1 kmh 29.45 in997.3 mb 0.04 in1.0 mm 0.00 in/hr0.0 mm/hr 0.13 in3.3 mm
05:10 AM 36.3°F2.4°C 36.1°F2.3°C 99% 1.6 mph N2.6 kmh N 6.0 mph9.7 kmh 29.45 in997.3 mb 0.05 in1.3 mm 0.12 in/hr3.0 mm/hr 0.14 in3.6 mm
05:15 AM 36.1°F2.3°C 35.9°F2.2°C 99% 2.2 mph NNE3.5 kmh NNE 6.0 mph9.7 kmh 29.46 in997.6 mb 0.04 in1.0 mm 0.00 in/hr0.0 mm/hr 0.14 in3.6 mm
05:20 AM 35.6°F2.0°C 35.4°F1.9°C 99% 0.7 mph NE1.1 kmh NE 5.4 mph8.7 kmh 29.46 in997.6 mb 0.04 in1.0 mm 0.00 in/hr0.0 mm/hr 0.14 in3.6 mm
05:25 AM 35.4°F1.9°C 35.2°F1.8°C 99% 0.7 mph NE1.1 kmh NE 5.4 mph8.7 kmh 29.46 in997.6 mb 0.04 in1.0 mm 0.00 in/hr0.0 mm/hr 0.14 in3.6 mm
05:30 AM 35.2°F1.8°C 35.0°F1.7°C 99% 0.7 mph NNE1.1 kmh NNE 5.4 mph8.7 kmh 29.47 in998.0 mb 0.04 in1.0 mm 0.00 in/hr0.0 mm/hr 0.14 in3.6 mm
05:35 AM 35.4°F1.9°C 35.2°F1.8°C 99% 1.6 mph NE2.6 kmh NE 5.4 mph8.7 kmh 29.47 in998.0 mb 0.02 in0.5 mm 0.00 in/hr0.0 mm/hr 0.14 in3.6 mm
05:40 AM 34.7°F1.5°C 34.5°F1.4°C 99% 1.6 mph N2.6 kmh N 11.4 mph18.3 kmh 29.49 in998.6 mb 0.02 in0.5 mm 0.00 in/hr0.0 mm/hr 0.14 in3.6 mm
05:45 AM 34.5°F1.4°C 34.3°F1.3°C 99% 1.6 mph NNE2.6 kmh NNE 11.4 mph18.3 kmh 29.48 in998.3 mb 0.02 in0.5 mm 0.00 in/hr0.0 mm/hr 0.14 in3.6 mm
05:50 AM 34.2°F1.2°C 33.9°F1.1°C 99% Calm Calm 4.5 mph7.2 kmh 29.47 in998.0 mb 0.02 in0.5 mm 0.00 in/hr0.0 mm/hr 0.14 in3.6 mm
05:55 AM 34.2°F1.2°C 33.9°F1.1°C 99% Calm Calm 3.8 mph6.1 kmh 29.48 in998.3 mb 0.01 in0.3 mm 0.00 in/hr0.0 mm/hr 0.14 in3.6 mm
06:00 AM 33.8°F1.0°C 33.6°F0.9°C 99% Calm Calm 3.1 mph5.0 kmh 29.49 in998.6 mb 0.01 in0.3 mm 0.00 in/hr0.0 mm/hr 0.14 in3.6 mm
06:05 AM 33.8°F1.0°C 33.6°F0.9°C 99% Calm Calm 3.1 mph5.0 kmh 29.50 in999.0 mb 0.01 in0.3 mm 0.00 in/hr0.0 mm/hr 0.14 in3.6 mm
06:10 AM 33.6°F0.9°C 33.4°F0.8°C 99% 0.7 mph NNE1.1 kmh NNE 3.8 mph6.1 kmh 29.51 in999.3 mb 0.00 in0.0 mm 0.00 in/hr0.0 mm/hr 0.14 in3.6 mm
06:15 AM 33.6°F0.9°C 33.4°F0.8°C 99% 0.7 mph N1.1 kmh N 3.8 mph6.1 kmh 29.50 in999.0 mb 0.00 in0.0 mm 0.00 in/hr0.0 mm/hr 0.14 in3.6 mm
06:20 AM 33.4°F0.8°C 33.2°F0.7°C 99% 1.6 mph N2.6 kmh N 3.8 mph6.1 kmh 29.50 in999.0 mb 0.00 in0.0 mm 0.00 in/hr0.0 mm/hr 0.14 in3.6 mm
06:25 AM 32.9°F0.5°C 32.7°F0.4°C 99% 0.7 mph NNE1.1 kmh NNE 5.4 mph8.7 kmh 29.50 in999.0 mb 0.00 in0.0 mm 0.00 in/hr0.0 mm/hr 0.14 in3.6 mm
06:30 AM 32.9°F0.5°C 32.7°F0.4°C 99% 0.7 mph NNE1.1 kmh NNE 5.4 mph8.7 kmh 29.50 in999.0 mb 0.00 in0.0 mm 0.00 in/hr0.0 mm/hr 0.14 in3.6 mm
06:35 AM 32.5°F0.3°C 32.3°F0.2°C 99% 0.7 mph N1.1 kmh N 2.2 mph3.5 kmh 29.51 in999.3 mb 0.00 in0.0 mm 0.00 in/hr0.0 mm/hr 0.14 in3.6 mm
06:40 AM 32.5°F0.3°C 32.3°F0.2°C 99% 0.7 mph N1.1 kmh N 2.2 mph3.5 kmh 29.51 in999.3 mb 0.00 in0.0 mm 0.00 in/hr0.0 mm/hr 0.14 in3.6 mm
06:45 AM 32.4°F0.2°C 32.1°F0.1°C 99% 0.7 mph N1.1 kmh N 2.2 mph3.5 kmh 29.51 in999.3 mb 0.00 in0.0 mm 0.00 in/hr0.0 mm/hr 0.14 in3.6 mm
06:50 AM 32.4°F0.2°C 32.1°F0.1°C 99% 0.7 mph N1.1 kmh N 3.1 mph5.0 kmh 29.51 in999.3 mb 0.00 in0.0 mm 0.00 in/hr0.0 mm/hr 0.14 in3.6 mm
06:55 AM 32.4°F0.2°C 32.1°F0.1°C 99% 0.7 mph N1.1 kmh N 3.1 mph5.0 kmh 29.52 in999.7 mb 0.00 in0.0 mm 0.00 in/hr0.0 mm/hr 0.14 in3.6 mm
07:00 AM 32.4°F0.2°C 32.1°F0.1°C 99% 0.7 mph N1.1 kmh N 3.8 mph6.1 kmh 29.53 in1000.0 mb 0.00 in0.0 mm 0.00 in/hr0.0 mm/hr 0.14 in3.6 mm
07:05 AM 32.4°F0.2°C 32.1°F0.1°C 99% 0.7 mph NE1.1 kmh NE 3.8 mph6.1 kmh 29.53 in1000.0 mb 0.00 in0.0 mm 0.00 in/hr0.0 mm/hr 0.14 in3.6 mm
07:10 AM 32.2°F0.1°C 31.9°F-0.1°C 99% 0.7 mph E1.1 kmh E 3.1 mph5.0 kmh 29.54 in1000.3 mb 0.00 in0.0 mm 0.00 in/hr0.0 mm/hr 0.14 in3.6 mm
07:15 AM 32.4°F0.2°C 32.1°F0.1°C 99% Calm Calm 3.1 mph5.0 kmh 29.54 in1000.3 mb 0.00 in0.0 mm 0.00 in/hr0.0 mm/hr 0.14 in3.6 mm
07:20 AM 32.2°F0.1°C 31.9°F-0.1°C 99% Calm Calm 3.1 mph5.0 kmh 29.53 in1000.0 mb 0.00 in0.0 mm 0.00 in/hr0.0 mm/hr 0.14 in3.6 mm
07:25 AM 32.2°F0.1°C 31.9°F-0.1°C 99% Calm Calm 1.6 mph2.6 kmh 29.55 in1000.7 mb 0.00 in0.0 mm 0.00 in/hr0.0 mm/hr 0.14 in3.6 mm
07:30 AM 32.2°F0.1°C 31.9°F-0.1°C 99% Calm Calm -- 29.53 in1000.0 mb 0.00 in0.0 mm 0.00 in/hr0.0 mm/hr 0.14 in3.6 mm
07:35 AM 32.2°F0.1°C 31.9°F-0.1°C 99% Calm Calm -- 29.56 in1001.0 mb 0.00 in0.0 mm 0.00 in/hr0.0 mm/hr 0.14 in3.6 mm
07:40 AM 32.4°F0.2°C 32.1°F0.1°C 99% Calm Calm -- 29.57 in1001.4 mb 0.00 in0.0 mm 0.00 in/hr0.0 mm/hr 0.14 in3.6 mm
07:45 AM 32.2°F0.1°C 31.9°F-0.1°C 99% Calm Calm -- 29.57 in1001.4 mb 0.00 in0.0 mm 0.00 in/hr0.0 mm/hr 0.14 in3.6 mm
07:50 AM 32.2°F0.1°C 31.9°F-0.1°C 99% Calm Calm -- 29.56 in1001.0 mb 0.00 in0.0 mm 0.00 in/hr0.0 mm/hr 0.14 in3.6 mm
07:55 AM 32.2°F0.1°C 31.9°F-0.1°C 99% Calm Calm -- 29.57 in1001.4 mb 0.00 in0.0 mm 0.00 in/hr0.0 mm/hr 0.14 in3.6 mm
08:00 AM 32.2°F0.1°C 31.9°F-0.1°C 99% Calm Calm -- 29.57 in1001.4 mb 0.00 in0.0 mm 0.00 in/hr0.0 mm/hr 0.14 in3.6 mm
08:05 AM 32.2°F0.1°C 31.9°F-0.1°C 99% Calm Calm -- 29.57 in1001.4 mb 0.00 in0.0 mm 0.00 in/hr0.0 mm/hr 0.14 in3.6 mm
08:10 AM 32.2°F0.1°C 31.9°F-0.1°C 99% Calm Calm -- 29.57 in1001.4 mb 0.00 in0.0 mm 0.00 in/hr0.0 mm/hr 0.14 in3.6 mm
08:15 AM 32.4°F0.2°C 32.1°F0.1°C 99% Calm Calm -- 29.57 in1001.4 mb 0.00 in0.0 mm 0.00 in/hr0.0 mm/hr 0.14 in3.6 mm
08:20 AM 32.2°F0.1°C 31.9°F-0.1°C 99% Calm Calm -- 29.57 in1001.4 mb 0.00 in0.0 mm 0.00 in/hr0.0 mm/hr 0.14 in3.6 mm
08:25 AM 32.2°F0.1°C 31.9°F-0.1°C 99% Calm Calm -- 29.57 in1001.4 mb 0.00 in0.0 mm 0.00 in/hr0.0 mm/hr 0.14 in3.6 mm
08:30 AM 32.2°F0.1°C 31.9°F-0.1°C 99% Calm Calm -- 29.57 in1001.4 mb 0.00 in0.0 mm 0.00 in/hr0.0 mm/hr 0.14 in3.6 mm
08:35 AM 32.2°F0.1°C 31.9°F-0.1°C 99% Calm Calm -- 29.58 in1001.7 mb 0.00 in0.0 mm 0.00 in/hr0.0 mm/hr 0.14 in3.6 mm
08:40 AM 32.2°F0.1°C 31.9°F-0.1°C 99% Calm Calm -- 29.59 in1002.0 mb 0.00 in0.0 mm 0.00 in/hr0.0 mm/hr 0.14 in3.6 mm
08:45 AM 32.2°F0.1°C 31.9°F-0.1°C 99% Calm Calm -- 29.57 in1001.4 mb 0.00 in0.0 mm 0.00 in/hr0.0 mm/hr 0.14 in3.6 mm
08:50 AM 32.4°F0.2°C 32.1°F0.1°C 99% Calm Calm -- 29.59 in1002.0 mb 0.00 in0.0 mm 0.00 in/hr0.0 mm/hr 0.14 in3.6 mm
08:55 AM 32.5°F0.3°C 32.3°F0.2°C 99% Calm Calm -- 29.58 in1001.7 mb 0.00 in0.0 mm 0.00 in/hr0.0 mm/hr 0.14 in3.6 mm
09:00 AM 32.7°F0.4°C 32.5°F0.3°C 99% Calm Calm 9.2 mph14.8 kmh 29.59 in1002.0 mb 0.11 in2.8 mm 0.12 in/hr3.0 mm/hr 0.25 in6.4 mm
09:05 AM 32.7°F0.4°C 32.5°F0.3°C 99% Calm Calm 9.2 mph14.8 kmh 29.58 in1001.7 mb 0.11 in2.8 mm 0.00 in/hr0.0 mm/hr 0.25 in6.4 mm
09:10 AM 32.9°F0.5°C 32.7°F0.4°C 99% Calm Calm 2.2 mph3.5 kmh 29.56 in1001.0 mb 0.11 in2.8 mm 0.00 in/hr0.0 mm/hr 0.25 in6.4 mm
09:15 AM 33.6°F0.9°C 33.4°F0.8°C 99% Calm Calm 2.2 mph3.5 kmh 29.58 in1001.7 mb 0.11 in2.8 mm 0.00 in/hr0.0 mm/hr 0.25 in6.4 mm
09:20 AM 33.4°F0.8°C 33.2°F0.7°C 99% Calm Calm 2.2 mph3.5 kmh 29.59 in1002.0 mb 0.11 in2.8 mm 0.00 in/hr0.0 mm/hr 0.25 in6.4 mm
09:25 AM 33.3°F0.7°C 33.0°F0.6°C 99% Calm Calm 2.2 mph3.5 kmh 29.57 in1001.4 mb 0.11 in2.8 mm 0.00 in/hr0.0 mm/hr 0.25 in6.4 mm
09:30 AM 33.3°F0.7°C 33.0°F0.6°C 99% Calm Calm 2.2 mph3.5 kmh 29.59 in1002.0 mb 0.11 in2.8 mm 0.00 in/hr0.0 mm/hr 0.25 in6.4 mm
09:35 AM 33.3°F0.7°C 33.0°F0.6°C 99% Calm Calm 3.8 mph6.1 kmh 29.59 in1002.0 mb 0.11 in2.8 mm 0.00 in/hr0.0 mm/hr 0.25 in6.4 mm
09:40 AM 33.3°F0.7°C 33.0°F0.6°C 99% Calm Calm 4.5 mph7.2 kmh 29.57 in1001.4 mb 0.11 in2.8 mm 0.00 in/hr0.0 mm/hr 0.25 in6.4 mm
09:45 AM 33.4°F0.8°C 33.2°F0.7°C 99% Calm Calm 4.5 mph7.2 kmh 29.60 in1002.4 mb 0.11 in2.8 mm 0.00 in/hr0.0 mm/hr 0.25 in6.4 mm
09:50 AM 33.4°F0.8°C 33.2°F0.7°C 99% Calm Calm 4.5 mph7.2 kmh 29.61 in1002.7 mb 0.11 in2.8 mm 0.00 in/hr0.0 mm/hr 0.25 in6.4 mm
09:55 AM 33.4°F0.8°C 33.2°F0.7°C 99% Calm Calm 3.1 mph5.0 kmh 29.60 in1002.4 mb 0.11 in2.8 mm 0.00 in/hr0.0 mm/hr 0.25 in6.4 mm
10:00 AM 33.6°F0.9°C 33.4°F0.8°C 99% Calm Calm 1.6 mph2.6 kmh 29.58 in1001.7 mb 0.00 in0.0 mm 0.00 in/hr0.0 mm/hr 0.25 in6.4 mm
10:05 AM 33.6°F0.9°C 33.4°F0.8°C 99% Calm Calm -- 29.57 in1001.4 mb 0.00 in0.0 mm 0.00 in/hr0.0 mm/hr 0.25 in6.4 mm
10:10 AM 34.3°F1.3°C 34.1°F1.2°C 99% Calm Calm 1.6 mph2.6 kmh 29.59 in1002.0 mb 0.00 in0.0 mm 0.00 in/hr0.0 mm/hr 0.25 in6.4 mm
10:15 AM 34.5°F1.4°C 34.3°F1.3°C 99% Calm Calm 2.2 mph3.5 kmh 29.59 in1002.0 mb 0.00 in0.0 mm 0.00 in/hr0.0 mm/hr 0.25 in6.4 mm
10:20 AM 34.7°F1.5°C 34.5°F1.4°C 99% Calm Calm 3.8 mph6.1 kmh 29.59 in1002.0 mb 0.00 in0.0 mm 0.00 in/hr0.0 mm/hr 0.25 in6.4 mm
10:25 AM 34.9°F1.6°C 34.6°F1.4°C 99% 0.7 mph E1.1 kmh E 6.0 mph9.7 kmh 29.59 in1002.0 mb 0.00 in0.0 mm 0.00 in/hr0.0 mm/hr 0.25 in6.4 mm
10:30 AM 35.1°F1.7°C 34.8°F1.6°C 99% Calm Calm 6.0 mph9.7 kmh 29.59 in1002.0 mb 0.00 in0.0 mm 0.00 in/hr0.0 mm/hr 0.25 in6.4 mm
10:35 AM 35.1°F1.7°C 34.8°F1.6°C 99% 0.7 mph ENE1.1 kmh ENE 6.0 mph9.7 kmh 29.60 in1002.4 mb 0.00 in0.0 mm 0.00 in/hr0.0 mm/hr 0.25 in6.4 mm
10:40 AM 35.1°F1.7°C 34.8°F1.6°C 99% 0.7 mph ENE1.1 kmh ENE 5.4 mph8.7 kmh 29.62 in1003.0 mb 0.00 in0.0 mm 0.00 in/hr0.0 mm/hr 0.25 in6.4 mm
10:45 AM 35.6°F2.0°C 35.4°F1.9°C 99% 1.6 mph E2.6 kmh E 9.2 mph14.8 kmh 29.62 in1003.0 mb 0.00 in0.0 mm 0.00 in/hr0.0 mm/hr 0.25 in6.4 mm
10:50 AM 35.6°F2.0°C 35.4°F1.9°C 99% Calm Calm 9.2 mph14.8 kmh 29.62 in1003.0 mb 0.00 in0.0 mm 0.00 in/hr0.0 mm/hr 0.25 in6.4 mm
10:55 AM 35.6°F2.0°C 35.4°F1.9°C 99% 0.7 mph ENE1.1 kmh ENE 9.2 mph14.8 kmh 29.62 in1003.0 mb 0.00 in0.0 mm 0.00 in/hr0.0 mm/hr 0.25 in6.4 mm
11:00 AM 35.8°F2.1°C 35.5°F1.9°C 99% Calm Calm 4.5 mph7.2 kmh 29.63 in1003.4 mb 0.00 in0.0 mm 0.00 in/hr0.0 mm/hr 0.25 in6.4 mm
11:05 AM 36.7°F2.6°C 36.4°F2.4°C 99% Calm Calm 4.5 mph7.2 kmh 29.62 in1003.0 mb 0.00 in0.0 mm 0.00 in/hr0.0 mm/hr 0.25 in6.4 mm
11:10 AM 37.0°F2.8°C 36.8°F2.7°C 99% Calm Calm 6.0 mph9.7 kmh 29.61 in1002.7 mb 0.00 in0.0 mm 0.00 in/hr0.0 mm/hr 0.25 in6.4 mm
11:15 AM 37.8°F3.2°C 37.5°F3.1°C 99% 0.7 mph E1.1 kmh E 6.9 mph11.1 kmh 29.62 in1003.0 mb 0.00 in0.0 mm 0.00 in/hr0.0 mm/hr 0.25 in6.4 mm
11:20 AM 37.9°F3.3°C 37.7°F3.2°C 99% 3.1 mph ENE5.0 kmh ENE 6.9 mph11.1 kmh 29.62 in1003.0 mb 0.00 in0.0 mm 0.00 in/hr0.0 mm/hr 0.25 in6.4 mm
11:25 AM 37.8°F3.2°C 37.5°F3.1°C 99% Calm Calm 12.1 mph19.5 kmh 29.62 in1003.0 mb 0.02 in0.5 mm 0.24 in/hr6.1 mm/hr 0.27 in6.9 mm
11:30 AM 38.5°F3.6°C 38.2°F3.4°C 99% 0.7 mph ENE1.1 kmh ENE 12.1 mph19.5 kmh 29.62 in1003.0 mb 0.05 in1.3 mm 0.36 in/hr9.1 mm/hr 0.30 in7.6 mm
11:35 AM 38.5°F3.6°C 38.2°F3.4°C 99% Calm Calm 9.8 mph15.8 kmh 29.62 in1003.0 mb 0.06 in1.5 mm 0.12 in/hr3.0 mm/hr 0.31 in7.9 mm
11:40 AM 37.8°F3.2°C 37.5°F3.1°C 99% 0.7 mph ENE1.1 kmh ENE 5.4 mph8.7 kmh 29.64 in1003.7 mb 0.06 in1.5 mm 0.00 in/hr0.0 mm/hr 0.31 in7.9 mm
11:45 AM 37.4°F3.0°C 37.1°F2.8°C 99% 0.7 mph NE1.1 kmh NE 4.5 mph7.2 kmh 29.64 in1003.7 mb 0.07 in1.8 mm 0.12 in/hr3.0 mm/hr 0.32 in8.1 mm
11:50 AM 36.9°F2.7°C 36.6°F2.6°C 99% Calm Calm 6.0 mph9.7 kmh 29.65 in1004.1 mb 0.07 in1.8 mm 0.00 in/hr0.0 mm/hr 0.32 in8.1 mm
11:55 AM 36.5°F2.5°C 36.2°F2.3°C 99% 0.7 mph ENE1.1 kmh ENE 6.0 mph9.7 kmh 29.65 in1004.1 mb 0.07 in1.8 mm 0.00 in/hr0.0 mm/hr 0.32 in8.1 mm
12:00 PM 36.1°F2.3°C 35.9°F2.2°C 99% Calm Calm 8.3 mph13.4 kmh 29.65 in1004.1 mb 0.07 in1.8 mm 0.00 in/hr0.0 mm/hr 0.32 in8.1 mm
12:05 PM 35.8°F2.1°C 35.5°F1.9°C 99% 0.7 mph NE1.1 kmh NE 8.3 mph13.4 kmh 29.63 in1003.4 mb 0.07 in1.8 mm 0.00 in/hr0.0 mm/hr 0.32 in8.1 mm
12:10 PM 36.0°F2.2°C 35.7°F2.1°C 99% 1.6 mph ENE2.6 kmh ENE 6.9 mph11.1 kmh 29.64 in1003.7 mb 0.07 in1.8 mm 0.00 in/hr0.0 mm/hr 0.32 in8.1 mm
12:15 PM 36.0°F2.2°C 35.7°F2.1°C 99% 0.7 mph NE1.1 kmh NE 6.9 mph11.1 kmh 29.64 in1003.7 mb 0.07 in1.8 mm 0.00 in/hr0.0 mm/hr 0.32 in8.1 mm
12:20 PM 36.7°F2.6°C 36.4°F2.4°C 99% Calm Calm 6.9 mph11.1 kmh 29.65 in1004.1 mb 0.07 in1.8 mm 0.00 in/hr0.0 mm/hr 0.33 in8.4 mm
12:25 PM 37.0°F2.8°C 36.8°F2.7°C 99% 0.7 mph NE1.1 kmh NE 3.8 mph6.1 kmh 29.64 in1003.7 mb 0.06 in1.5 mm 0.00 in/hr0.0 mm/hr 0.33 in8.4 mm
12:30 PM 37.0°F2.8°C 36.8°F2.7°C 99% 1.6 mph NE2.6 kmh NE 4.5 mph7.2 kmh 29.64 in1003.7 mb 0.04 in1.0 mm 0.00 in/hr0.0 mm/hr 0.33 in8.4 mm
12:35 PM 36.9°F2.7°C 36.6°F2.6°C 99% 0.7 mph ENE1.1 kmh ENE 4.5 mph7.2 kmh 29.64 in1003.7 mb 0.02 in0.5 mm 0.00 in/hr0.0 mm/hr 0.33 in8.4 mm
12:40 PM 36.3°F2.4°C 36.1°F2.3°C 99% 1.6 mph E2.6 kmh E 5.4 mph8.7 kmh 29.65 in1004.1 mb 0.02 in0.5 mm 0.00 in/hr0.0 mm/hr 0.33 in8.4 mm
12:45 PM 36.1°F2.3°C 35.9°F2.2°C 99% 1.6 mph ENE2.6 kmh ENE 5.4 mph8.7 kmh 29.65 in1004.1 mb 0.01 in0.3 mm 0.00 in/hr0.0 mm/hr 0.33 in8.4 mm
12:50 PM 36.1°F2.3°C 35.9°F2.2°C 99% 0.7 mph NE1.1 kmh NE 5.4 mph8.7 kmh 29.66 in1004.4 mb 0.01 in0.3 mm 0.00 in/hr0.0 mm/hr 0.33 in8.4 mm
12:55 PM 36.5°F2.5°C 36.2°F2.3°C 99% 0.7 mph NE1.1 kmh NE 5.4 mph8.7 kmh 29.66 in1004.4 mb 0.01 in0.3 mm 0.00 in/hr0.0 mm/hr 0.33 in8.4 mm
01:00 PM 37.0°F2.8°C 36.8°F2.7°C 99% Calm Calm 4.5 mph7.2 kmh 29.65 in1004.1 mb 0.01 in0.3 mm 0.00 in/hr0.0 mm/hr 0.33 in8.4 mm
01:05 PM 38.5°F3.6°C 38.2°F3.4°C 99% 0.7 mph NE1.1 kmh NE 3.8 mph6.1 kmh 29.65 in1004.1 mb 0.01 in0.3 mm 0.00 in/hr0.0 mm/hr 0.33 in8.4 mm
01:10 PM 39.7°F4.3°C 39.5°F4.2°C 99% 0.7 mph NE1.1 kmh NE 3.8 mph6.1 kmh 29.66 in1004.4 mb 0.01 in0.3 mm 0.00 in/hr0.0 mm/hr 0.33 in8.4 mm
01:15 PM 40.6°F4.8°C 39.9°F4.4°C 97% 0.7 mph NE1.1 kmh NE 3.8 mph6.1 kmh 29.66 in1004.4 mb 0.01 in0.3 mm 0.00 in/hr0.0 mm/hr 0.33 in8.4 mm
01:20 PM 40.5°F4.7°C 38.3°F3.5°C 92% 1.6 mph NNE2.6 kmh NNE 7.6 mph12.2 kmh 29.66 in1004.4 mb 0.00 in0.0 mm 0.00 in/hr0.0 mm/hr 0.33 in8.4 mm
01:25 PM 40.5°F4.7°C 38.3°F3.5°C 92% 1.6 mph N2.6 kmh N 7.6 mph12.2 kmh 29.65 in1004.1 mb 0.00 in0.0 mm 0.00 in/hr0.0 mm/hr 0.33 in8.4 mm
01:30 PM 39.6°F4.2°C 37.2°F2.9°C 91% 1.6 mph NE2.6 kmh NE 5.4 mph8.7 kmh 29.65 in1004.1 mb 0.00 in0.0 mm 0.00 in/hr0.0 mm/hr 0.33 in8.4 mm
01:35 PM 38.8°F3.8°C 36.4°F2.4°C 91% 1.6 mph E2.6 kmh E 5.4 mph8.7 kmh 29.65 in1004.1 mb 0.00 in0.0 mm 0.00 in/hr0.0 mm/hr 0.33 in8.4 mm
01:40 PM 39.0°F3.9°C 36.6°F2.6°C 91% 2.2 mph E3.5 kmh E 8.3 mph13.4 kmh 29.66 in1004.4 mb 0.00 in0.0 mm 0.00 in/hr0.0 mm/hr 0.33 in8.4 mm
01:45 PM 39.2°F4.0°C 36.2°F2.3°C 89% 0.7 mph ENE1.1 kmh ENE 8.3 mph13.4 kmh 29.66 in1004.4 mb 0.00 in0.0 mm 0.00 in/hr0.0 mm/hr 0.33 in8.4 mm
01:50 PM 39.4°F4.1°C 36.7°F2.6°C 90% 0.7 mph ENE1.1 kmh ENE 8.3 mph13.4 kmh 29.66 in1004.4 mb 0.00 in0.0 mm 0.00 in/hr0.0 mm/hr 0.33 in8.4 mm
01:55 PM 39.2°F4.0°C 36.5°F2.5°C 90% 0.7 mph E1.1 kmh E 6.0 mph9.7 kmh 29.67 in1004.7 mb 0.00 in0.0 mm 0.00 in/hr0.0 mm/hr 0.33 in8.4 mm
02:00 PM 39.2°F4.0°C 36.5°F2.5°C 90% 0.7 mph E1.1 kmh E 6.0 mph9.7 kmh 29.67 in1004.7 mb 0.00 in0.0 mm 0.00 in/hr0.0 mm/hr 0.33 in8.4 mm
02:05 PM 40.1°F4.5°C 37.1°F2.8°C 89% 0.7 mph ENE1.1 kmh ENE 6.0 mph9.7 kmh 29.67 in1004.7 mb 0.00 in0.0 mm 0.00 in/hr0.0 mm/hr 0.33 in8.4 mm
02:10 PM 41.4°F5.2°C 38.4°F3.6°C 89% Calm Calm 3.8 mph6.1 kmh 29.67 in1004.7 mb 0.00 in0.0 mm 0.00 in/hr0.0 mm/hr 0.33 in8.4 mm
02:15 PM 42.3°F5.7°C 39.0°F3.9°C 88% 0.7 mph NE1.1 kmh NE 6.9 mph11.1 kmh 29.67 in1004.7 mb 0.00 in0.0 mm 0.00 in/hr0.0 mm/hr 0.33 in8.4 mm
02:20 PM 42.8°F6.0°C 38.6°F3.7°C 85% 0.7 mph ENE1.1 kmh ENE 6.9 mph11.1 kmh 29.67 in1004.7 mb 0.00 in0.0 mm 0.00 in/hr0.0 mm/hr 0.33 in8.4 mm
02:25 PM 43.2°F6.2°C 37.7°F3.2°C 81% 0.7 mph NE1.1 kmh NE 5.4 mph8.7 kmh 29.67 in1004.7 mb 0.00 in0.0 mm 0.00 in/hr0.0 mm/hr 0.33 in8.4 mm
02:30 PM 42.4°F5.8°C 37.3°F2.9°C 82% 1.6 mph NNE2.6 kmh NNE 5.4 mph8.7 kmh 29.67 in1004.7 mb 0.00 in0.0 mm 0.00 in/hr0.0 mm/hr 0.33 in8.4 mm
02:35 PM 41.2°F5.1°C 36.1°F2.3°C 82% 1.6 mph NNE2.6 kmh NNE 5.4 mph8.7 kmh 29.67 in1004.7 mb 0.00 in0.0 mm 0.00 in/hr0.0 mm/hr 0.33 in8.4 mm
02:40 PM 40.3°F4.6°C 36.1°F2.3°C 85% Calm Calm 5.4 mph8.7 kmh 29.68 in1005.1 mb 0.00 in0.0 mm 0.00 in/hr0.0 mm/hr 0.33 in8.4 mm
02:45 PM 39.7°F4.3°C 35.6°F2.0°C 85% 0.7 mph NE1.1 kmh NE 3.1 mph5.0 kmh 29.68 in1005.1 mb 0.00 in0.0 mm 0.00 in/hr0.0 mm/hr 0.33 in8.4 mm
02:50 PM 39.7°F4.3°C 35.6°F2.0°C 85% 0.7 mph NNE1.1 kmh NNE 2.2 mph3.5 kmh 29.68 in1005.1 mb 0.00 in0.0 mm 0.00 in/hr0.0 mm/hr 0.33 in8.4 mm
02:55 PM 39.7°F4.3°C 35.6°F2.0°C 85% 0.7 mph N1.1 kmh N 2.2 mph3.5 kmh 29.68 in1005.1 mb 0.00 in0.0 mm 0.00 in/hr0.0 mm/hr 0.33 in8.4 mm
03:00 PM 41.7°F5.4°C 38.4°F3.6°C 88% Calm Calm 3.8 mph6.1 kmh 29.68 in1005.1 mb 0.00 in0.0 mm 0.00 in/hr0.0 mm/hr 0.33 in8.4 mm
03:05 PM 41.7°F5.4°C 38.4°F3.6°C 88% Calm Calm 3.8 mph6.1 kmh 29.68 in1005.1 mb 0.00 in0.0 mm 0.00 in/hr0.0 mm/hr 0.33 in8.4 mm
03:10 PM 43.0°F6.1°C 37.9°F3.3°C 82% 1.6 mph NE2.6 kmh NE 3.1 mph5.0 kmh 29.68 in1005.1 mb 0.00 in0.0 mm 0.00 in/hr0.0 mm/hr 0.33 in8.4 mm
03:15 PM 45.1°F7.3°C 37.7°F3.2°C 75% 1.6 mph ENE2.6 kmh ENE 5.4 mph8.7 kmh 29.68 in1005.1 mb 0.00 in0.0 mm 0.00 in/hr0.0 mm/hr 0.33 in8.4 mm
03:20 PM 45.7°F7.6°C 38.2°F3.4°C 75% Calm Calm 5.4 mph8.7 kmh 29.68 in1005.1 mb 0.00 in0.0 mm 0.00 in/hr0.0 mm/hr 0.33 in8.4 mm
03:25 PM 45.1°F7.3°C 36.3°F2.4°C 71% 1.6 mph ENE2.6 kmh ENE 5.4 mph8.7 kmh 29.69 in1005.4 mb 0.00 in0.0 mm 0.00 in/hr0.0 mm/hr 0.33 in8.4 mm
03:30 PM 43.3°F6.3°C 34.9°F1.6°C 72% 0.7 mph E1.1 kmh E 11.4 mph18.3 kmh 29.68 in1005.1 mb 0.00 in0.0 mm 0.00 in/hr0.0 mm/hr 0.33 in8.4 mm
03:35 PM 42.6°F5.9°C 35.6°F2.0°C 76% 1.6 mph ENE2.6 kmh ENE 11.4 mph18.3 kmh 29.68 in1005.1 mb 0.00 in0.0 mm 0.00 in/hr0.0 mm/hr 0.33 in8.4 mm
03:40 PM 40.5°F4.7°C 34.2°F1.2°C 78% 0.7 mph NE1.1 kmh NE 8.3 mph13.4 kmh 29.68 in1005.1 mb 0.00 in0.0 mm 0.00 in/hr0.0 mm/hr 0.33 in8.4 mm
03:45 PM 40.3°F4.6°C 34.3°F1.3°C 79% 0.7 mph NE1.1 kmh NE 5.4 mph8.7 kmh 29.68 in1005.1 mb 0.00 in0.0 mm 0.00 in/hr0.0 mm/hr 0.33 in8.4 mm
03:50 PM 40.3°F4.6°C 34.3°F1.3°C 79% 0.7 mph NE1.1 kmh NE 3.8 mph6.1 kmh 29.68 in1005.1 mb 0.00 in0.0 mm 0.00 in/hr0.0 mm/hr 0.33 in8.4 mm
03:55 PM 41.7°F5.4°C 36.6°F2.6°C 82% 0.7 mph NE1.1 kmh NE 2.2 mph3.5 kmh 29.68 in1005.1 mb 0.00 in0.0 mm 0.00 in/hr0.0 mm/hr 0.33 in8.4 mm
04:00 PM 43.2°F6.2°C 36.4°F2.4°C 77% 1.6 mph NNE2.6 kmh NNE 3.8 mph6.1 kmh 29.68 in1005.1 mb 0.00 in0.0 mm 0.00 in/hr0.0 mm/hr 0.33 in8.4 mm
04:05 PM 43.7°F6.5°C 36.3°F2.4°C 75% 0.7 mph NNE1.1 kmh NNE 4.5 mph7.2 kmh 29.68 in1005.1 mb 0.00 in0.0 mm 0.00 in/hr0.0 mm/hr 0.33 in8.4 mm
04:10 PM 43.7°F6.5°C 36.3°F2.4°C 75% 0.7 mph N1.1 kmh N 4.5 mph7.2 kmh 29.68 in1005.1 mb 0.00 in0.0 mm 0.00 in/hr0.0 mm/hr 0.33 in8.4 mm
04:15 PM 45.0°F7.2°C 36.8°F2.7°C 73% Calm Calm 2.2 mph3.5 kmh 29.68 in1005.1 mb 0.00 in0.0 mm 0.00 in/hr0.0 mm/hr 0.33 in8.4 mm
04:20 PM 44.2°F6.8°C 35.8°F2.1°C 72% 2.2 mph NNE3.5 kmh NNE 7.6 mph12.2 kmh 29.68 in1005.1 mb 0.00 in0.0 mm 0.00 in/hr0.0 mm/hr 0.33 in8.4 mm
04:25 PM 43.3°F6.3°C 35.6°F2.0°C 74% 0.7 mph NE1.1 kmh NE 7.6 mph12.2 kmh 29.68 in1005.1 mb 0.00 in0.0 mm 0.00 in/hr0.0 mm/hr 0.33 in8.4 mm
04:30 PM 43.2°F6.2°C 35.8°F2.1°C 75% 0.7 mph NE1.1 kmh NE 7.6 mph12.2 kmh 29.68 in1005.1 mb 0.00 in0.0 mm 0.00 in/hr0.0 mm/hr 0.33 in8.4 mm
04:35 PM 43.2°F6.2°C 35.4°F1.9°C 74% 0.7 mph NE1.1 kmh NE 3.1 mph5.0 kmh 29.68 in1005.1 mb 0.00 in0.0 mm 0.00 in/hr0.0 mm/hr 0.33 in8.4 mm
04:40 PM 43.0°F6.1°C 33.9°F1.1°C 70% 0.7 mph NE1.1 kmh NE 3.1 mph5.0 kmh 29.68 in1005.1 mb 0.00 in0.0 mm 0.00 in/hr0.0 mm/hr 0.33 in8.4 mm
04:45 PM 42.6°F5.9°C 33.9°F1.1°C 71% 1.6 mph ENE2.6 kmh ENE 4.5 mph7.2 kmh 29.69 in1005.4 mb 0.00 in0.0 mm 0.00 in/hr0.0 mm/hr 0.33 in8.4 mm
04:50 PM 42.3°F5.7°C 33.2°F0.7°C 70% 1.6 mph E2.6 kmh E 4.5 mph7.2 kmh 29.69 in1005.4 mb 0.00 in0.0 mm 0.00 in/hr0.0 mm/hr 0.33 in8.4 mm
04:55 PM 42.3°F5.7°C 33.5°F0.8°C 71% 0.7 mph E1.1 kmh E 4.5 mph7.2 kmh 29.69 in1005.4 mb 0.00 in0.0 mm 0.00 in/hr0.0 mm/hr 0.33 in8.4 mm
05:00 PM 42.6°F5.9°C 33.9°F1.1°C 71% 1.6 mph ENE2.6 kmh ENE 8.3 mph13.4 kmh 29.69 in1005.4 mb 0.00 in0.0 mm 0.00 in/hr0.0 mm/hr 0.33 in8.4 mm
05:05 PM 42.6°F5.9°C 33.5°F0.8°C 70% Calm Calm 8.3 mph13.4 kmh 29.69 in1005.4 mb 0.00 in0.0 mm 0.00 in/hr0.0 mm/hr 0.33 in8.4 mm
05:10 PM 42.3°F5.7°C 33.2°F0.7°C 70% Calm Calm 5.4 mph8.7 kmh 29.69 in1005.4 mb 0.00 in0.0 mm 0.00 in/hr0.0 mm/hr 0.33 in8.4 mm
05:15 PM 41.9°F5.5°C 33.2°F0.7°C 71% 2.2 mph NE3.5 kmh NE 7.6 mph12.2 kmh 29.70 in1005.8 mb 0.00 in0.0 mm 0.00 in/hr0.0 mm/hr 0.33 in8.4 mm
05:20 PM 41.7°F5.4°C 33.4°F0.8°C 72% 1.6 mph NE2.6 kmh NE 7.6 mph12.2 kmh 29.70 in1005.8 mb 0.00 in0.0 mm 0.00 in/hr0.0 mm/hr 0.33 in8.4 mm
05:25 PM 41.5°F5.3°C 33.2°F0.7°C 72% 0.7 mph NE1.1 kmh NE 6.0 mph9.7 kmh 29.70 in1005.8 mb 0.00 in0.0 mm 0.00 in/hr0.0 mm/hr 0.33 in8.4 mm
05:30 PM 42.6°F5.9°C 34.6°F1.4°C 73% Calm Calm 5.4 mph8.7 kmh 29.70 in1005.8 mb 0.00 in0.0 mm 0.00 in/hr0.0 mm/hr 0.33 in8.4 mm
05:35 PM 43.9°F6.6°C 35.1°F1.7°C 71% 0.7 mph NE1.1 kmh NE 5.4 mph8.7 kmh 29.70 in1005.8 mb 0.00 in0.0 mm 0.00 in/hr0.0 mm/hr 0.33 in8.4 mm
05:40 PM 43.2°F6.2°C 34.1°F1.2°C 70% 0.7 mph E1.1 kmh E 6.0 mph9.7 kmh 29.70 in1005.8 mb 0.00 in0.0 mm 0.00 in/hr0.0 mm/hr 0.33 in8.4 mm
05:45 PM 41.9°F5.5°C 33.5°F0.8°C 72% 2.2 mph E3.5 kmh E 6.9 mph11.1 kmh 29.70 in1005.8 mb 0.00 in0.0 mm 0.00 in/hr0.0 mm/hr 0.33 in8.4 mm
05:50 PM 41.5°F5.3°C 33.9°F1.1°C 74% 3.1 mph ENE5.0 kmh ENE 7.6 mph12.2 kmh 29.70 in1005.8 mb 0.00 in0.0 mm 0.00 in/hr0.0 mm/hr 0.33 in8.4 mm
05:55 PM 41.2°F5.1°C 33.2°F0.7°C 73% Calm Calm 7.6 mph12.2 kmh 29.70 in1005.8 mb 0.00 in0.0 mm 0.00 in/hr0.0 mm/hr 0.33 in8.4 mm
06:00 PM 41.2°F5.1°C 33.2°F0.7°C 73% 2.2 mph ENE3.5 kmh ENE 6.0 mph9.7 kmh 29.71 in1006.1 mb 0.00 in0.0 mm 0.00 in/hr0.0 mm/hr 0.33 in8.4 mm
06:05 PM 41.0°F5.0°C 32.3°F0.2°C 71% 1.6 mph ENE2.6 kmh ENE 6.0 mph9.7 kmh 29.71 in1006.1 mb 0.00 in0.0 mm 0.00 in/hr0.0 mm/hr 0.33 in8.4 mm
06:10 PM 41.0°F5.0°C 32.3°F0.2°C 71% 0.7 mph NE1.1 kmh NE 6.0 mph9.7 kmh 29.71 in1006.1 mb 0.00 in0.0 mm 0.00 in/hr0.0 mm/hr 0.33 in8.4 mm
06:15 PM 41.0°F5.0°C 32.3°F0.2°C 71% 0.7 mph NNE1.1 kmh NNE 5.4 mph8.7 kmh 29.72 in1006.4 mb 0.00 in0.0 mm 0.00 in/hr0.0 mm/hr 0.33 in8.4 mm
06:20 PM 41.4°F5.2°C 33.0°F0.6°C 72% 1.6 mph NNE2.6 kmh NNE 3.8 mph6.1 kmh 29.73 in1006.8 mb 0.00 in0.0 mm 0.00 in/hr0.0 mm/hr 0.33 in8.4 mm
06:25 PM 42.1°F5.6°C 33.7°F0.9°C 72% 0.7 mph NNE1.1 kmh NNE 4.5 mph7.2 kmh 29.73 in1006.8 mb 0.00 in0.0 mm 0.00 in/hr0.0 mm/hr 0.33 in8.4 mm
06:30 PM 44.4°F6.9°C 31.8°F-0.1°C 61% 1.6 mph NNE2.6 kmh NNE 6.0 mph9.7 kmh 29.73 in1006.8 mb 0.00 in0.0 mm 0.00 in/hr0.0 mm/hr 0.33 in8.4 mm
06:35 PM 43.7°F6.5°C 31.9°F-0.1°C 63% 3.1 mph NE5.0 kmh NE 9.8 mph15.8 kmh 29.73 in1006.8 mb 0.00 in0.0 mm 0.00 in/hr0.0 mm/hr 0.33 in8.4 mm
06:40 PM 41.9°F5.5°C 30.6°F-0.8°C 64% 1.6 mph NE2.6 kmh NE 9.8 mph15.8 kmh 29.74 in1007.1 mb 0.00 in0.0 mm 0.00 in/hr0.0 mm/hr 0.33 in8.4 mm
06:45 PM 41.2°F5.1°C 30.3°F-0.9°C 65% Calm Calm 9.8 mph15.8 kmh 29.74 in1007.1 mb 0.00 in0.0 mm 0.00 in/hr0.0 mm/hr 0.33 in8.4 mm
06:50 PM 40.8°F4.9°C 30.4°F-0.9°C 66% Calm Calm 5.4 mph8.7 kmh 29.74 in1007.1 mb 0.00 in0.0 mm 0.00 in/hr0.0 mm/hr 0.33 in8.4 mm
06:55 PM 40.3°F4.6°C 30.6°F-0.8°C 68% Calm Calm 3.8 mph6.1 kmh 29.74 in1007.1 mb 0.00 in0.0 mm 0.00 in/hr0.0 mm/hr 0.33 in8.4 mm
07:00 PM 40.1°F4.5°C 30.8°F-0.7°C 69% Calm Calm 6.9 mph11.1 kmh 29.75 in1007.5 mb 0.00 in0.0 mm 0.00 in/hr0.0 mm/hr 0.33 in8.4 mm
07:05 PM 40.1°F4.5°C 31.1°F-0.5°C 70% 1.6 mph NE2.6 kmh NE 6.9 mph11.1 kmh 29.75 in1007.5 mb 0.00 in0.0 mm 0.00 in/hr0.0 mm/hr 0.33 in8.4 mm
07:10 PM 39.7°F4.3°C 30.8°F-0.7°C 70% 0.7 mph NE1.1 kmh NE 5.4 mph8.7 kmh 29.75 in1007.5 mb 0.00 in0.0 mm 0.00 in/hr0.0 mm/hr 0.33 in8.4 mm
07:15 PM 39.9°F4.4°C 31.3°F-0.4°C 71% 0.7 mph ENE1.1 kmh ENE 5.4 mph8.7 kmh 29.75 in1007.5 mb 0.00 in0.0 mm 0.00 in/hr0.0 mm/hr 0.33 in8.4 mm
07:20 PM 40.3°F4.6°C 31.6°F-0.2°C 71% Calm Calm 5.4 mph8.7 kmh 29.75 in1007.5 mb 0.00 in0.0 mm 0.00 in/hr0.0 mm/hr 0.33 in8.4 mm
07:25 PM 40.3°F4.6°C 30.2°F-1.0°C 67% 1.6 mph NE2.6 kmh NE 5.4 mph8.7 kmh 29.75 in1007.5 mb 0.00 in0.0 mm 0.00 in/hr0.0 mm/hr 0.33 in8.4 mm
07:30 PM 39.9°F4.4°C 29.5°F-1.4°C 66% Calm Calm 6.0 mph9.7 kmh 29.75 in1007.5 mb 0.00 in0.0 mm 0.00 in/hr0.0 mm/hr 0.33 in8.4 mm
07:35 PM 39.4°F4.1°C 29.0°F-1.7°C 66% 0.7 mph ENE1.1 kmh ENE 6.0 mph9.7 kmh 29.75 in1007.5 mb 0.00 in0.0 mm 0.00 in/hr0.0 mm/hr 0.33 in8.4 mm
07:40 PM 38.8°F3.8°C 28.5°F-1.9°C 66% 0.7 mph ENE1.1 kmh ENE 6.0 mph9.7 kmh 29.75 in1007.5 mb 0.00 in0.0 mm 0.00 in/hr0.0 mm/hr 0.33 in8.4 mm
07:45 PM 38.5°F3.6°C 28.5°F-1.9°C 67% 0.7 mph ENE1.1 kmh ENE 6.0 mph9.7 kmh 29.75 in1007.5 mb 0.00 in0.0 mm 0.00 in/hr0.0 mm/hr 0.33 in8.4 mm
07:50 PM 38.5°F3.6°C 28.5°F-1.9°C 67% 0.7 mph E1.1 kmh E 5.4 mph8.7 kmh 29.75 in1007.5 mb 0.00 in0.0 mm 0.00 in/hr0.0 mm/hr 0.33 in8.4 mm
07:55 PM 38.5°F3.6°C 28.5°F-1.9°C 67% 0.7 mph E1.1 kmh E 1.6 mph2.6 kmh 29.76 in1007.8 mb 0.00 in0.0 mm 0.00 in/hr0.0 mm/hr 0.33 in8.4 mm
08:00 PM 37.9°F3.3°C 28.3°F-2.1°C 68% Calm Calm 1.6 mph2.6 kmh 29.77 in1008.1 mb 0.00 in0.0 mm 0.00 in/hr0.0 mm/hr 0.33 in8.4 mm
08:05 PM 37.9°F3.3°C 28.3°F-2.1°C 68% Calm Calm 0.7 mph1.1 kmh 29.76 in1007.8 mb 0.00 in0.0 mm 0.00 in/hr0.0 mm/hr 0.33 in8.4 mm
08:10 PM 37.4°F3.0°C 27.8°F-2.3°C 68% Calm Calm 0.7 mph1.1 kmh 29.77 in1008.1 mb 0.00 in0.0 mm 0.00 in/hr0.0 mm/hr 0.33 in8.4 mm
08:15 PM 37.0°F2.8°C 27.8°F-2.3°C 69% Calm Calm 1.6 mph2.6 kmh 29.77 in1008.1 mb 0.00 in0.0 mm 0.00 in/hr0.0 mm/hr 0.33 in8.4 mm
08:20 PM 36.9°F2.7°C 27.7°F-2.4°C 69% 1.6 mph NE2.6 kmh NE 3.8 mph6.1 kmh 29.77 in1008.1 mb 0.00 in0.0 mm 0.00 in/hr0.0 mm/hr 0.33 in8.4 mm
08:25 PM 36.5°F2.5°C 27.7°F-2.4°C 70% Calm Calm 3.8 mph6.1 kmh 29.77 in1008.1 mb 0.00 in0.0 mm 0.00 in/hr0.0 mm/hr 0.33 in8.4 mm
08:30 PM 36.1°F2.3°C 27.7°F-2.4°C 71% Calm Calm 3.8 mph6.1 kmh 29.77 in1008.1 mb 0.00 in0.0 mm 0.00 in/hr0.0 mm/hr 0.33 in8.4 mm
08:35 PM 35.8°F2.1°C 27.3°F-2.6°C 71% Calm Calm 0.7 mph1.1 kmh 29.78 in1008.5 mb 0.00 in0.0 mm 0.00 in/hr0.0 mm/hr 0.33 in8.4 mm
08:40 PM 35.6°F2.0°C 27.1°F-2.7°C 71% Calm Calm 0.7 mph1.1 kmh 29.78 in1008.5 mb 0.00 in0.0 mm 0.00 in/hr0.0 mm/hr 0.33 in8.4 mm
08:45 PM 34.9°F1.6°C 27.1°F-2.7°C 73% Calm Calm 1.6 mph2.6 kmh 29.78 in1008.5 mb 0.00 in0.0 mm 0.00 in/hr0.0 mm/hr 0.33 in8.4 mm
08:50 PM 34.7°F1.5°C 27.0°F-2.8°C 73% Calm Calm 2.2 mph3.5 kmh 29.78 in1008.5 mb 0.00 in0.0 mm 0.00 in/hr0.0 mm/hr 0.33 in8.4 mm
08:55 PM 34.7°F1.5°C 27.0°F-2.8°C 73% Calm Calm 2.2 mph3.5 kmh 29.77 in1008.1 mb 0.00 in0.0 mm 0.00 in/hr0.0 mm/hr 0.33 in8.4 mm
09:00 PM 34.5°F1.4°C 27.1°F-2.7°C 74% Calm Calm 2.2 mph3.5 kmh 29.78 in1008.5 mb 0.00 in0.0 mm 0.00 in/hr0.0 mm/hr 0.33 in8.4 mm
09:05 PM 34.3°F1.3°C 26.9°F-2.8°C 74% Calm Calm 2.2 mph3.5 kmh 29.79 in1008.8 mb 0.00 in0.0 mm 0.00 in/hr0.0 mm/hr 0.33 in8.4 mm
09:10 PM 34.2°F1.2°C 26.8°F-2.9°C 74% Calm Calm 2.2 mph3.5 kmh 29.79 in1008.8 mb 0.00 in0.0 mm 0.00 in/hr0.0 mm/hr 0.33 in8.4 mm
09:15 PM 34.0°F1.1°C 26.9°F-2.8°C 75% 0.7 mph E1.1 kmh E 2.2 mph3.5 kmh 29.79 in1008.8 mb 0.00 in0.0 mm 0.00 in/hr0.0 mm/hr 0.33 in8.4 mm
09:20 PM 34.0°F1.1°C 26.9°F-2.8°C 75% 0.7 mph E1.1 kmh E 3.1 mph5.0 kmh 29.79 in1008.8 mb 0.00 in0.0 mm 0.00 in/hr0.0 mm/hr 0.33 in8.4 mm
09:25 PM 34.0°F1.1°C 26.9°F-2.8°C 75% 0.7 mph E1.1 kmh E 3.1 mph5.0 kmh 29.79 in1008.8 mb 0.00 in0.0 mm 0.00 in/hr0.0 mm/hr 0.33 in8.4 mm
09:30 PM 34.0°F1.1°C 26.9°F-2.8°C 75% 1.6 mph E2.6 kmh E 3.1 mph5.0 kmh 29.79 in1008.8 mb 0.00 in0.0 mm 0.00 in/hr0.0 mm/hr 0.33 in8.4 mm
09:35 PM 34.0°F1.1°C 26.9°F-2.8°C 75% 1.6 mph E2.6 kmh E 3.1 mph5.0 kmh 29.80 in1009.1 mb 0.00 in0.0 mm 0.00 in/hr0.0 mm/hr 0.33 in8.4 mm
09:40 PM 34.0°F1.1°C 27.2°F-2.7°C 76% 1.6 mph E2.6 kmh E 3.1 mph5.0 kmh 29.80 in1009.1 mb 0.00 in0.0 mm 0.00 in/hr0.0 mm/hr 0.33 in8.4 mm
09:45 PM 34.0°F1.1°C 27.5°F-2.5°C 77% 0.7 mph E1.1 kmh E 3.1 mph5.0 kmh 29.80 in1009.1 mb 0.00 in0.0 mm 0.00 in/hr0.0 mm/hr 0.33 in8.4 mm
09:50 PM 33.6°F0.9°C 27.5°F-2.5°C 78% 1.6 mph E2.6 kmh E 3.1 mph5.0 kmh 29.80 in1009.1 mb 0.00 in0.0 mm 0.00 in/hr0.0 mm/hr 0.33 in8.4 mm
09:55 PM 33.6°F0.9°C 27.8°F-2.3°C 79% 0.7 mph E1.1 kmh E 3.1 mph5.0 kmh 29.80 in1009.1 mb 0.00 in0.0 mm 0.00 in/hr0.0 mm/hr 0.33 in8.4 mm
10:00 PM 33.4°F0.8°C 27.3°F-2.6°C 78% 0.7 mph E1.1 kmh E 3.1 mph5.0 kmh 29.80 in1009.1 mb 0.00 in0.0 mm 0.00 in/hr0.0 mm/hr 0.33 in8.4 mm
10:05 PM 33.4°F0.8°C 27.3°F-2.6°C 78% 0.7 mph ESE1.1 kmh ESE 1.6 mph2.6 kmh 29.80 in1009.1 mb 0.00 in0.0 mm 0.00 in/hr0.0 mm/hr 0.33 in8.4 mm
10:10 PM 33.3°F0.7°C 27.8°F-2.3°C 80% 0.7 mph ESE1.1 kmh ESE 3.1 mph5.0 kmh 29.80 in1009.1 mb 0.00 in0.0 mm 0.00 in/hr0.0 mm/hr 0.33 in8.4 mm
10:15 PM 33.1°F0.6°C 27.6°F-2.4°C 80% 1.6 mph E2.6 kmh E 3.1 mph5.0 kmh 29.80 in1009.1 mb 0.00 in0.0 mm 0.00 in/hr0.0 mm/hr 0.33 in8.4 mm
10:20 PM 33.1°F0.6°C 27.9°F-2.3°C 81% 1.6 mph E2.6 kmh E 4.5 mph7.2 kmh 29.80 in1009.1 mb 0.00 in0.0 mm 0.00 in/hr0.0 mm/hr 0.33 in8.4 mm
10:25 PM 33.1°F0.6°C 27.6°F-2.4°C 80% 3.1 mph E5.0 kmh E 4.5 mph7.2 kmh 29.80 in1009.1 mb 0.00 in0.0 mm 0.00 in/hr0.0 mm/hr 0.33 in8.4 mm
10:30 PM 33.1°F0.6°C 27.3°F-2.6°C 79% 2.2 mph E3.5 kmh E 4.5 mph7.2 kmh 29.81 in1009.5 mb 0.00 in0.0 mm 0.00 in/hr0.0 mm/hr 0.33 in8.4 mm
10:35 PM 33.3°F0.7°C 27.5°F-2.5°C 79% 2.2 mph E3.5 kmh E 6.9 mph11.1 kmh 29.81 in1009.5 mb 0.00 in0.0 mm 0.00 in/hr0.0 mm/hr 0.33 in8.4 mm
10:40 PM 33.1°F0.6°C 27.3°F-2.6°C 79% 1.6 mph E2.6 kmh E 6.9 mph11.1 kmh 29.81 in1009.5 mb 0.00 in0.0 mm 0.00 in/hr0.0 mm/hr 0.33 in8.4 mm
10:45 PM 33.1°F0.6°C 27.3°F-2.6°C 79% 2.2 mph E3.5 kmh E 6.0 mph9.7 kmh 29.81 in1009.5 mb 0.00 in0.0 mm 0.00 in/hr0.0 mm/hr 0.33 in8.4 mm
10:50 PM 33.1°F0.6°C 27.3°F-2.6°C 79% 0.7 mph E1.1 kmh E 6.0 mph9.7 kmh 29.81 in1009.5 mb 0.00 in0.0 mm 0.00 in/hr0.0 mm/hr 0.33 in8.4 mm
10:55 PM 32.7°F0.4°C 27.3°F-2.6°C 80% 1.6 mph E2.6 kmh E 4.5 mph7.2 kmh 29.81 in1009.5 mb 0.00 in0.0 mm 0.00 in/hr0.0 mm/hr 0.33 in8.4 mm
11:00 PM 32.7°F0.4°C 27.3°F-2.6°C 80% 0.7 mph E1.1 kmh E 4.5 mph7.2 kmh 29.82 in1009.8 mb 0.00 in0.0 mm 0.00 in/hr0.0 mm/hr 0.33 in8.4 mm
11:05 PM 32.7°F0.4°C 27.3°F-2.6°C 80% 0.7 mph E1.1 kmh E 4.5 mph7.2 kmh 29.82 in1009.8 mb 0.00 in0.0 mm 0.00 in/hr0.0 mm/hr 0.33 in8.4 mm
11:10 PM 32.7°F0.4°C 27.3°F-2.6°C 80% 0.7 mph E1.1 kmh E 3.1 mph5.0 kmh 29.82 in1009.8 mb 0.00 in0.0 mm 0.00 in/hr0.0 mm/hr 0.33 in8.4 mm
11:15 PM 32.5°F0.3°C 27.1°F-2.7°C 80% 3.1 mph E5.0 kmh E 6.0 mph9.7 kmh 29.82 in1009.8 mb 0.00 in0.0 mm 0.00 in/hr0.0 mm/hr 0.33 in8.4 mm
11:20 PM 32.5°F0.3°C 27.1°F-2.7°C 80% 0.7 mph E1.1 kmh E 6.0 mph9.7 kmh 29.82 in1009.8 mb 0.00 in0.0 mm 0.00 in/hr0.0 mm/hr 0.33 in8.4 mm
11:25 PM 32.5°F0.3°C 27.1°F-2.7°C 80% 1.6 mph E2.6 kmh E 6.0 mph9.7 kmh 29.82 in1009.8 mb 0.00 in0.0 mm 0.00 in/hr0.0 mm/hr 0.33 in8.4 mm
11:30 PM 32.5°F0.3°C 27.4°F-2.6°C 81% 1.6 mph E2.6 kmh E 5.4 mph8.7 kmh 29.82 in1009.8 mb 0.00 in0.0 mm 0.00 in/hr0.0 mm/hr 0.33 in8.4 mm
11:35 PM 32.4°F0.2°C 26.9°F-2.8°C 80% 2.2 mph E3.5 kmh E 6.0 mph9.7 kmh 29.81 in1009.5 mb 0.00 in0.0 mm 0.00 in/hr0.0 mm/hr 0.33 in8.4 mm
11:40 PM 32.5°F0.3°C 27.1°F-2.7°C 80% 1.6 mph E2.6 kmh E 6.0 mph9.7 kmh 29.81 in1009.5 mb 0.00 in0.0 mm 0.00 in/hr0.0 mm/hr 0.33 in8.4 mm
11:45 PM 32.4°F0.2°C 26.6°F-3.0°C 79% 3.8 mph E6.1 kmh E 8.3 mph13.4 kmh 29.82 in1009.8 mb 0.00 in0.0 mm 0.00 in/hr0.0 mm/hr 0.33 in8.4 mm
11:50 PM 32.4°F0.2°C 26.6°F-3.0°C 79% 2.2 mph E3.5 kmh E 8.3 mph13.4 kmh 29.82 in1009.8 mb 0.00 in0.0 mm 0.00 in/hr0.0 mm/hr 0.33 in8.4 mm
11:55 PM 32.4°F0.2°C 26.6°F-3.0°C 79% 2.2 mph E3.5 kmh E 8.3 mph13.4 kmh 29.82 in1009.8 mb 0.00 in0.0 mm 0.00 in/hr0.0 mm/hr 0.33 in8.4 mm